Time,TemperatureF,DewpointF,PressureIn,WindDirection,WindDirectionDegrees,WindSpeedMPH,WindSpeedGustMPH,Humidity,HourlyPrecipIn,Conditions,Clouds,dailyrainin,SoftwareType,DateUTC
2013-09-26 00:00:00,47.9,46.8,14.77,WNW,303,0.0,-999.0,95,0.00,,,-99.99,,2013-09-26 08:00:00,
2013-09-26 00:05:00,47.9,46.9,14.77,ENE,60,2.3,-999.0,96,0.00,,,-99.99,,2013-09-26 08:05:00,
2013-09-26 00:10:00,47.8,46.9,14.77,East,94,0.0,-999.0,96,0.00,,,-99.99,,2013-09-26 08:10:00,
2013-09-26 00:15:00,47.9,46.9,14.77,West,281,0.8,-999.0,96,0.00,,,-99.99,,2013-09-26 08:15:00,
2013-09-26 00:20:00,47.9,47.0,14.77,SW,230,1.2,-999.0,96,0.00,,,-99.99,,2013-09-26 08:20:00,
2013-09-26 00:25:00,47.9,47.0,14.77,West,268,1.6,-999.0,96,0.00,,,-99.99,,2013-09-26 08:25:00,
2013-09-26 00:30:00,47.7,46.9,14.77,West,259,1.3,-999.0,96,0.00,,,-99.99,,2013-09-26 08:30:00,
2013-09-26 00:35:00,47.7,46.9,14.77,West,260,2.5,-999.0,97,0.00,,,-99.99,,2013-09-26 08:35:00,
2013-09-26 00:40:00,47.6,46.9,14.77,SW,232,0.5,-999.0,97,0.00,,,-99.99,,2013-09-26 08:40:00,
2013-09-26 00:45:00,47.6,46.8,14.77,West,281,1.6,-999.0,97,0.00,,,-99.99,,2013-09-26 08:45:00,
2013-09-26 00:50:00,47.5,46.8,14.77,West,264,2.6,-999.0,97,0.00,,,-99.99,,2013-09-26 08:50:00,
2013-09-26 00:55:00,47.6,46.8,14.77,WNW,283,0.8,-999.0,96,0.00,,,-99.99,,2013-09-26 08:55:00,
2013-09-26 01:00:00,47.6,46.8,14.77,West,261,1.8,-999.0,96,0.00,,,-99.99,,2013-09-26 09:00:00,
2013-09-26 01:05:00,47.6,46.8,14.77,West,266,2.2,-999.0,97,0.00,,,-99.99,,2013-09-26 09:05:00,
2013-09-26 01:10:00,47.7,46.9,14.77,West,267,2.1,-999.0,96,0.00,,,-99.99,,2013-09-26 09:10:00,
2013-09-26 01:15:00,47.7,46.9,14.77,WSW,254,3.1,-999.0,96,0.00,,,-99.99,,2013-09-26 09:15:00,
2013-09-26 01:20:00,47.6,46.9,14.77,WNW,289,2.6,-999.0,97,0.00,,,-99.99,,2013-09-26 09:20:00,
2013-09-26 01:25:00,47.6,46.8,14.77,WSW,243,3.1,-999.0,97,0.00,,,-99.99,,2013-09-26 09:25:00,
2013-09-26 01:30:00,47.7,46.9,14.77,West,274,1.4,-999.0,96,0.00,,,-99.99,,2013-09-26 09:30:00,
2013-09-26 01:35:00,47.6,46.9,14.77,WNW,303,0.1,-999.0,97,0.00,,,-99.99,,2013-09-26 09:35:00,
2013-09-26 01:40:00,47.6,46.9,14.77,NW,313,0.0,-999.0,97,0.00,,,-99.99,,2013-09-26 09:40:00,
2013-09-26 01:45:00,47.6,46.8,14.77,NW,313,0.0,-999.0,97,0.00,,,-99.99,,2013-09-26 09:45:00,
2013-09-26 01:50:00,47.5,46.8,14.77,West,278,0.0,-999.0,97,0.00,,,-99.99,,2013-09-26 09:50:00,
2013-09-26 01:55:00,47.4,46.7,14.77,West,263,0.0,-999.0,97,0.00,,,-99.99,,2013-09-26 09:55:00,
2013-09-26 02:00:00,47.3,46.7,14.77,West,279,2.8,-999.0,97,0.00,,,-99.99,,2013-09-26 10:00:00,
2013-09-26 02:05:00,47.2,46.7,14.77,West,263,3.4,-999.0,98,0.00,,,-99.99,,2013-09-26 10:05:00,
2013-09-26 02:10:00,47.2,46.7,14.77,West,264,3.1,-999.0,97,0.00,,,-99.99,,2013-09-26 10:10:00,
2013-09-26 02:15:00,47.2,46.7,14.77,WSW,244,2.0,-999.0,97,0.00,,,-99.99,,2013-09-26 10:15:00,
2013-09-26 02:20:00,47.2,46.7,14.77,West,277,2.0,-999.0,97,0.00,,,-99.99,,2013-09-26 10:20:00,
2013-09-26 02:25:00,47.2,46.7,14.77,WSW,249,2.7,-999.0,98,0.00,,,-99.99,,2013-09-26 10:25:00,
2013-09-26 02:30:00,47.2,46.8,14.77,West,274,1.9,-999.0,98,0.00,,,-99.99,,2013-09-26 10:30:00,
2013-09-26 02:35:00,47.3,47.0,14.77,WSW,243,2.5,-999.0,98,0.00,,,-99.99,,2013-09-26 10:35:00,
2013-09-26 02:40:00,47.4,46.9,14.77,WSW,248,3.1,-999.0,98,0.00,,,-99.99,,2013-09-26 10:40:00,
2013-09-26 02:45:00,47.3,46.9,14.77,West,269,2.1,-999.0,98,0.00,,,-99.99,,2013-09-26 10:45:00,
2013-09-26 02:50:00,47.2,46.9,14.77,WSW,251,3.3,-999.0,98,0.00,,,-99.99,,2013-09-26 10:50:00,
2013-09-26 02:55:00,47.0,46.8,14.77,WSW,238,2.8,-999.0,99,0.00,,,-99.99,,2013-09-26 10:55:00,
2013-09-26 03:00:00,47.0,46.8,14.77,WSW,251,3.2,-999.0,99,0.00,,,-99.99,,2013-09-26 11:00:00,
2013-09-26 03:05:00,47.0,46.8,14.77,WSW,246,3.3,-999.0,99,0.00,,,-99.99,,2013-09-26 11:05:00,
2013-09-26 03:10:00,46.7,46.7,14.77,West,259,3.8,-999.0,99,0.00,,,-99.99,,2013-09-26 11:10:00,
2013-09-26 03:15:00,46.7,46.7,14.77,WSW,256,3.9,-999.0,100,0.00,,,-99.99,,2013-09-26 11:15:00,
2013-09-26 03:20:00,46.7,46.7,14.77,WSW,253,4.8,-999.0,100,0.00,,,-99.99,,2013-09-26 11:20:00,
2013-09-26 03:25:00,46.7,46.7,14.77,WSW,247,4.1,-999.0,100,0.00,,,-99.99,,2013-09-26 11:25:00,
2013-09-26 03:30:00,46.8,46.8,14.77,WSW,243,4.1,-999.0,100,0.00,,,-99.99,,2013-09-26 11:30:00,
2013-09-26 03:35:00,47.0,47.0,14.77,WSW,240,4.0,-999.0,100,0.00,,,-99.99,,2013-09-26 11:35:00,
2013-09-26 03:40:00,47.2,47.1,14.77,WSW,252,2.2,-999.0,99,0.00,,,-99.99,,2013-09-26 11:40:00,
2013-09-26 03:45:00,47.3,47.2,14.77,West,267,1.9,-999.0,99,0.00,,,-99.99,,2013-09-26 11:45:00,
2013-09-26 03:50:00,47.2,47.0,14.77,WSW,240,2.6,-999.0,99,0.00,,,-99.99,,2013-09-26 11:50:00,
2013-09-26 03:55:00,47.0,47.0,14.77,West,265,2.6,-999.0,99,0.00,,,-99.99,,2013-09-26 11:55:00,
2013-09-26 04:00:00,47.1,47.0,14.77,WSW,245,2.2,-999.0,99,0.00,,,-99.99,,2013-09-26 12:00:00,
2013-09-26 04:05:00,47.0,46.9,14.77,SW,230,3.8,-999.0,99,0.00,,,-99.99,,2013-09-26 12:05:00,
2013-09-26 04:10:00,46.9,46.9,14.77,WSW,247,2.1,-999.0,100,0.00,,,-99.99,,2013-09-26 12:10:00,
2013-09-26 04:15:00,46.9,46.9,14.77,West,268,4.0,-999.0,100,0.00,,,-99.99,,2013-09-26 12:15:00,
2013-09-26 04:20:00,46.9,46.9,14.77,West,277,2.4,-999.0,100,0.00,,,-99.99,,2013-09-26 12:20:00,
2013-09-26 04:25:00,46.8,46.8,14.77,WNW,287,2.3,-999.0,100,0.00,,,-99.99,,2013-09-26 12:25:00,
2013-09-26 04:30:00,46.8,46.8,14.77,WSW,252,1.7,-999.0,100,0.00,,,-99.99,,2013-09-26 12:30:00,
2013-09-26 04:35:00,46.8,46.8,14.77,West,268,3.1,-999.0,100,0.00,,,-99.99,,2013-09-26 12:35:00,
2013-09-26 04:40:00,46.8,46.8,14.77,West,266,3.8,-999.0,100,0.00,,,-99.99,,2013-09-26 12:40:00,
2013-09-26 04:45:00,46.9,46.9,14.77,WSW,237,4.8,-999.0,100,0.00,,,-99.99,,2013-09-26 12:45:00,
2013-09-26 04:50:00,46.8,46.8,14.77,WSW,250,3.4,-999.0,99,0.00,,,-99.99,,2013-09-26 12:50:00,
2013-09-26 04:55:00,46.9,46.9,14.77,SW,230,2.8,-999.0,100,0.00,,,-99.99,,2013-09-26 12:55:00,
2013-09-26 05:00:00,46.9,46.9,14.77,SW,228,2.8,-999.0,100,0.00,,,-99.99,,2013-09-26 13:00:00,
2013-09-26 05:05:00,46.8,46.8,14.77,West,261,2.6,-999.0,100,0.00,,,-99.99,,2013-09-26 13:05:00,
2013-09-26 05:10:00,46.8,46.8,14.77,West,263,2.7,-999.0,100,0.00,,,-99.99,,2013-09-26 13:10:00,
2013-09-26 05:15:00,46.8,46.8,14.77,West,267,3.5,-999.0,100,0.00,,,-99.99,,2013-09-26 13:15:00,
2013-09-26 05:20:00,46.8,46.8,14.77,West,260,3.2,-999.0,100,0.00,,,-99.99,,2013-09-26 13:20:00,
2013-09-26 05:25:00,46.8,46.8,14.77,West,261,3.2,-999.0,100,0.00,,,-99.99,,2013-09-26 13:25:00,
2013-09-26 05:30:00,46.8,46.8,14.77,West,265,3.0,-999.0,100,0.00,,,-99.99,,2013-09-26 13:30:00,
2013-09-26 05:35:00,46.8,46.8,14.77,WSW,248,4.1,-999.0,99,0.00,,,-99.99,,2013-09-26 13:35:00,
2013-09-26 05:40:00,46.8,46.8,14.77,WSW,239,4.2,-999.0,99,0.00,,,-99.99,,2013-09-26 13:40:00,
2013-09-26 05:45:00,46.6,46.6,14.77,WSW,246,4.2,-999.0,100,0.00,,,-99.99,,2013-09-26 13:45:00,
2013-09-26 05:50:00,46.5,46.5,14.77,West,260,4.9,-999.0,100,0.00,,,-99.99,,2013-09-26 13:50:00,
2013-09-26 05:55:00,46.7,46.7,14.77,West,266,4.9,-999.0,100,0.00,,,-99.99,,2013-09-26 13:55:00,
2013-09-26 06:00:00,46.9,46.8,14.77,West,279,3.1,-999.0,99,0.00,,,-99.99,,2013-09-26 14:00:00,
2013-09-26 06:05:00,46.9,46.8,14.77,WSW,247,3.1,-999.0,99,0.00,,,-99.99,,2013-09-26 14:05:00,
2013-09-26 06:10:00,46.8,46.8,14.77,WSW,249,2.1,-999.0,99,0.00,,,-99.99,,2013-09-26 14:10:00,
2013-09-26 06:15:00,46.8,46.8,14.77,WSW,239,1.8,-999.0,99,0.00,,,-99.99,,2013-09-26 14:15:00,
2013-09-26 06:20:00,46.8,46.7,14.77,West,269,0.5,-999.0,99,0.00,,,-99.99,,2013-09-26 14:20:00,
2013-09-26 06:25:00,46.8,46.7,14.77,West,280,1.3,-999.0,99,0.00,,,-99.99,,2013-09-26 14:25:00,
2013-09-26 06:30:00,46.8,46.8,14.77,WNW,284,0.7,-999.0,99,0.00,,,-99.99,,2013-09-26 14:30:00,
2013-09-26 06:35:00,46.8,46.8,14.77,West,268,1.5,-999.0,99,0.00,,,-99.99,,2013-09-26 14:35:00,
2013-09-26 06:40:00,46.9,46.8,14.77,West,261,1.9,-999.0,99,0.00,,,-99.99,,2013-09-26 14:40:00,
2013-09-26 06:45:00,46.9,46.8,14.77,WNW,302,1.0,-999.0,99,0.00,,,-99.99,,2013-09-26 14:45:00,
2013-09-26 06:50:00,47.0,46.9,14.77,NW,307,1.5,-999.0,99,0.00,,,-99.99,,2013-09-26 14:50:00,
2013-09-26 06:55:00,47.0,46.8,14.77,NW,304,0.9,-999.0,99,0.00,,,-99.99,,2013-09-26 14:55:00,
2013-09-26 07:00:00,46.9,46.7,14.77,WNW,295,1.4,-999.0,99,0.00,,,-99.99,,2013-09-26 15:00:00,
2013-09-26 07:05:00,46.8,46.7,14.77,NW,307,1.0,-999.0,99,0.00,,,-99.99,,2013-09-26 15:05:00,
2013-09-26 07:10:00,46.5,46.4,14.77,West,273,3.4,-999.0,99,0.00,,,-99.99,,2013-09-26 15:10:00,
2013-09-26 07:15:00,46.7,46.5,14.77,WSW,249,3.0,-999.0,99,0.00,,,-99.99,,2013-09-26 15:15:00,
2013-09-26 07:20:00,46.6,46.4,14.77,WSW,248,2.8,-999.0,99,0.00,,,-99.99,,2013-09-26 15:20:00,
2013-09-26 07:25:00,46.5,46.4,14.77,WSW,254,3.0,-999.0,99,0.00,,,-99.99,,2013-09-26 15:25:00,
2013-09-26 07:30:00,46.4,46.4,14.77,West,262,2.7,-999.0,99,0.00,,,-99.99,,2013-09-26 15:30:00,
2013-09-26 07:35:00,46.5,46.5,14.77,West,272,1.8,-999.0,100,0.00,,,-99.99,,2013-09-26 15:35:00,
2013-09-26 07:40:00,46.7,46.7,14.77,West,274,1.4,-999.0,100,0.00,,,-99.99,,2013-09-26 15:40:00,
2013-09-26 07:45:00,46.7,46.7,14.77,West,270,1.1,-999.0,100,0.00,,,-99.99,,2013-09-26 15:45:00,
2013-09-26 07:50:00,46.5,46.5,14.78,West,268,1.5,-999.0,100,0.00,,,-99.99,,2013-09-26 15:50:00,
2013-09-26 07:55:00,46.4,46.4,14.77,West,271,1.5,-999.0,99,0.00,,,-99.99,,2013-09-26 15:55:00,
2013-09-26 08:00:00,46.2,46.2,14.77,West,271,2.1,-999.0,100,0.00,,,-99.99,,2013-09-26 16:00:00,
2013-09-26 08:05:00,46.0,46.0,14.77,SW,235,3.2,-999.0,100,0.00,,,-99.99,,2013-09-26 16:05:00,
2013-09-26 08:10:00,46.0,46.0,14.78,WSW,253,3.7,-999.0,100,0.00,,,-99.99,,2013-09-26 16:10:00,
2013-09-26 08:15:00,45.8,45.8,14.77,WNW,283,2.7,-999.0,100,0.00,,,-99.99,,2013-09-26 16:15:00,
2013-09-26 08:20:00,46.0,46.0,14.77,West,281,1.7,-999.0,100,0.00,,,-99.99,,2013-09-26 16:20:00,
2013-09-26 08:25:00,46.0,46.0,14.77,West,268,2.4,-999.0,100,0.00,,,-99.99,,2013-09-26 16:25:00,
2013-09-26 08:30:00,46.0,46.0,14.77,West,267,2.6,-999.0,100,0.00,,,-99.99,,2013-09-26 16:30:00,
2013-09-26 08:35:00,46.1,46.1,14.77,SW,226,0.1,-999.0,100,0.00,,,-99.99,,2013-09-26 16:35:00,
2013-09-26 08:40:00,46.2,46.2,14.77,WSW,250,0.0,-999.0,100,0.00,,,-99.99,,2013-09-26 16:40:00,
2013-09-26 08:45:00,46.2,46.2,14.77,SW,234,0.0,-999.0,100,0.00,,,-99.99,,2013-09-26 16:45:00,
2013-09-26 08:50:00,46.2,46.2,14.77,West,268,2.0,-999.0,100,0.00,,,-99.99,,2013-09-26 16:50:00,
2013-09-26 08:55:00,46.3,46.3,14.77,NW,320,1.5,-999.0,100,0.00,,,-99.99,,2013-09-26 16:55:00,
2013-09-26 09:00:00,46.5,46.5,14.77,West,270,1.5,-999.0,100,0.00,,,-99.99,,2013-09-26 17:00:00,
2013-09-26 09:05:00,46.6,46.6,14.77,West,270,1.5,-999.0,100,0.00,,,-99.99,,2013-09-26 17:05:00,
2013-09-26 09:10:00,46.7,46.7,14.77,West,276,2.2,-999.0,100,0.00,,,-99.99,,2013-09-26 17:10:00,
2013-09-26 09:15:00,46.9,46.9,14.77,WNW,301,1.3,-999.0,100,0.00,,,-99.99,,2013-09-26 17:15:00,
2013-09-26 09:20:00,47.2,47.2,14.77,NW,317,0.0,-999.0,100,0.00,,,-99.99,,2013-09-26 17:20:00,
2013-09-26 09:25:00,47.4,47.3,14.77,North,2,2.2,-999.0,99,0.00,,,-99.99,,2013-09-26 17:25:00,
2013-09-26 09:30:00,47.5,47.4,14.77,NNW,344,2.5,-999.0,99,0.00,,,-99.99,,2013-09-26 17:30:00,
2013-09-26 09:36:00,47.7,47.5,14.77,SW,223,1.8,-999.0,99,0.00,,,-99.99,,2013-09-26 17:36:00,
2013-09-26 09:41:00,47.2,47.0,14.77,SSW,212,2.0,-999.0,99,0.00,,,-99.99,,2013-09-26 17:41:00,
2013-09-26 09:46:00,47.0,46.9,14.77,West,259,3.2,-999.0,99,0.00,,,-99.99,,2013-09-26 17:46:00,
2013-09-26 09:51:00,47.4,47.3,14.77,SW,234,1.5,-999.0,99,0.00,,,-99.99,,2013-09-26 17:51:00,
2013-09-26 09:56:00,47.5,47.3,14.77,SW,235,1.2,-999.0,99,0.00,,,-99.99,,2013-09-26 17:56:00,
2013-09-26 10:01:00,48.3,48.3,14.77,WSW,243,0.0,-999.0,100,0.00,,,-99.99,,2013-09-26 18:01:00,
2013-09-26 10:06:00,48.4,47.9,14.77,ENE,58,1.0,-999.0,98,0.00,,,-99.99,,2013-09-26 18:06:00,
2013-09-26 10:11:00,48.4,48.0,14.77,ENE,61,0.0,-999.0,98,0.00,,,-99.99,,2013-09-26 18:11:00,
2013-09-26 10:17:00,48.4,47.8,14.77,South,187,0.4,-999.0,97,0.00,,,-99.99,,2013-09-26 18:17:00,
2013-09-26 10:22:00,48.0,47.3,14.77,West,260,1.0,-999.0,97,0.00,,,-99.99,,2013-09-26 18:22:00,
2013-09-26 10:27:00,48.0,47.7,14.77,WSW,253,0.0,-999.0,98,0.00,,,-99.99,,2013-09-26 18:27:00,
2013-09-26 10:32:00,48.7,48.4,14.77,NNW,338,0.0,-999.0,98,0.00,,,-99.99,,2013-09-26 18:32:00,
2013-09-26 10:37:00,49.6,48.4,14.77,South,171,4.3,-999.0,95,0.00,,,-99.99,,2013-09-26 18:37:00,
2013-09-26 10:43:00,50.2,48.3,14.77,WSW,243,1.6,-999.0,93,0.00,,,-99.99,,2013-09-26 18:43:00,
2013-09-26 10:48:00,50.9,48.2,14.77,SW,218,1.9,-999.0,90,0.00,,,-99.99,,2013-09-26 18:48:00,
2013-09-26 10:53:00,51.5,48.2,14.77,SSW,192,2.4,-999.0,88,0.00,,,-99.99,,2013-09-26 18:53:00,
2013-09-26 10:58:00,51.0,47.7,14.77,SSW,206,2.2,-999.0,88,0.00,,,-99.99,,2013-09-26 18:58:00,
2013-09-26 11:03:00,51.1,47.5,14.77,SW,233,1.1,-999.0,87,0.00,,,-99.99,,2013-09-26 19:03:00,
2013-09-26 11:08:00,51.1,46.8,14.77,SSW,213,3.3,-999.0,85,0.00,,,-99.99,,2013-09-26 19:08:00,
2013-09-26 11:14:00,51.1,46.9,14.77,SSW,196,2.7,-999.0,85,0.00,,,-99.99,,2013-09-26 19:14:00,
2013-09-26 11:19:00,51.3,47.0,14.77,South,191,4.1,-999.0,85,0.00,,,-99.99,,2013-09-26 19:19:00,
2013-09-26 11:24:00,51.8,47.2,14.77,SSW,207,3.8,-999.0,84,0.00,,,-99.99,,2013-09-26 19:24:00,
2013-09-26 11:29:00,52.3,47.1,14.77,SW,219,3.1,-999.0,82,0.00,,,-99.99,,2013-09-26 19:29:00,
2013-09-26 11:34:00,52.7,47.3,14.77,SSW,203,2.2,-999.0,81,0.00,,,-99.99,,2013-09-26 19:34:00,
2013-09-26 11:39:00,53.0,47.8,14.77,WSW,240,1.2,-999.0,82,0.00,,,-99.99,,2013-09-26 19:39:00,
2013-09-26 11:44:00,52.4,46.9,14.77,West,275,2.8,-999.0,81,0.00,,,-99.99,,2013-09-26 19:44:00,
2013-09-26 11:49:00,53.0,46.8,14.77,WSW,253,3.5,-999.0,79,0.00,,,-99.99,,2013-09-26 19:49:00,
2013-09-26 11:54:00,53.2,46.1,14.77,WSW,240,2.9,-999.0,76,0.00,,,-99.99,,2013-09-26 19:54:00,
2013-09-26 11:59:00,53.3,46.0,14.79,SW,231,5.7,-999.0,76,0.00,,,-99.99,,2013-09-26 19:59:00,
2013-09-26 12:04:00,53.1,46.0,14.77,WSW,256,1.2,-999.0,76,0.00,,,-99.99,,2013-09-26 20:04:00,
2013-09-26 12:09:00,53.0,46.1,14.77,WSW,247,3.8,-999.0,77,0.00,,,-99.99,,2013-09-26 20:09:00,
2013-09-26 12:14:00,53.4,46.7,14.77,SSW,204,1.8,-999.0,77,0.00,,,-99.99,,2013-09-26 20:14:00,
2013-09-26 12:19:00,54.1,46.3,14.77,SSW,204,0.0,-999.0,74,0.00,,,-99.99,,2013-09-26 20:19:00,
2013-09-26 12:24:00,53.8,45.5,14.77,SW,230,8.1,-999.0,73,0.00,,,-99.99,,2013-09-26 20:24:00,
2013-09-26 12:29:00,53.3,45.5,14.77,WSW,239,5.5,-999.0,74,0.00,,,-99.99,,2013-09-26 20:29:00,
2013-09-26 12:34:00,53.1,45.7,14.77,West,270,3.9,-999.0,75,0.00,,,-99.99,,2013-09-26 20:34:00,
2013-09-26 12:39:00,53.2,45.7,14.77,WSW,238,4.1,-999.0,75,0.00,,,-99.99,,2013-09-26 20:39:00,
2013-09-26 12:44:00,53.4,45.2,14.77,West,260,3.5,-999.0,73,0.00,,,-99.99,,2013-09-26 20:44:00,
2013-09-26 12:49:00,53.3,44.8,14.77,West,262,3.8,-999.0,72,0.00,,,-99.99,,2013-09-26 20:49:00,
2013-09-26 12:54:00,53.5,44.7,14.77,West,259,3.5,-999.0,72,0.00,,,-99.99,,2013-09-26 20:54:00,
2013-09-26 12:59:00,54.1,44.8,14.79,SW,232,2.4,-999.0,70,0.00,,,-99.99,,2013-09-26 20:59:00,
2013-09-26 13:04:00,54.0,44.8,14.77,SSW,210,6.5,-999.0,70,0.00,,,-99.99,,2013-09-26 21:04:00,
2013-09-26 13:09:00,54.0,44.3,14.77,SW,224,6.8,-999.0,69,0.00,,,-99.99,,2013-09-26 21:09:00,
2013-09-26 13:14:00,53.6,43.3,14.77,SW,226,6.6,-999.0,68,0.00,,,-99.99,,2013-09-26 21:14:00,
2013-09-26 13:19:00,53.7,44.9,14.77,WSW,239,5.5,-999.0,71,0.00,,,-99.99,,2013-09-26 21:19:00,
2013-09-26 13:24:00,53.5,44.6,14.77,SW,236,7.6,-999.0,71,0.00,,,-99.99,,2013-09-26 21:24:00,
2013-09-26 13:29:00,53.7,42.8,14.77,SW,220,6.2,-999.0,66,0.00,,,-99.99,,2013-09-26 21:29:00,
2013-09-26 13:34:00,53.8,44.4,14.77,WSW,247,5.4,-999.0,70,0.00,,,-99.99,,2013-09-26 21:34:00,
2013-09-26 13:39:00,53.8,44.4,14.77,WSW,247,4.5,-999.0,70,0.00,,,-99.99,,2013-09-26 21:39:00,
2013-09-26 13:44:00,53.8,44.1,14.77,SW,235,6.1,-999.0,69,0.00,,,-99.99,,2013-09-26 21:44:00,
2013-09-26 13:49:00,53.8,44.3,14.77,SW,223,5.3,-999.0,70,0.00,,,-99.99,,2013-09-26 21:49:00,
2013-09-26 13:54:00,53.6,44.3,14.77,WSW,245,3.4,-999.0,70,0.00,,,-99.99,,2013-09-26 21:54:00,
2013-09-26 13:59:00,53.4,44.3,14.79,SW,216,0.9,-999.0,71,0.00,,,-99.99,,2013-09-26 21:59:00,
2013-09-26 14:04:00,53.5,44.3,14.77,SW,222,1.8,-999.0,70,0.00,,,-99.99,,2013-09-26 22:04:00,
2013-09-26 14:09:00,53.6,44.1,14.78,SSW,192,1.0,-999.0,70,0.00,,,-99.99,,2013-09-26 22:09:00,
2013-09-26 14:14:00,53.8,44.4,14.77,NW,316,1.8,-999.0,70,0.00,,,-99.99,,2013-09-26 22:14:00,
2013-09-26 14:19:00,54.0,44.2,14.77,WSW,252,4.6,-999.0,69,0.00,,,-99.99,,2013-09-26 22:19:00,
2013-09-26 14:24:00,54.3,43.8,14.77,NNE,24,1.6,-999.0,67,0.00,,,-99.99,,2013-09-26 22:24:00,
2013-09-26 14:29:00,54.8,44.2,14.77,WNW,285,3.5,-999.0,67,0.00,,,-99.99,,2013-09-26 22:29:00,
2013-09-26 14:34:00,54.7,44.2,14.77,NW,310,1.4,-999.0,67,0.00,,,-99.99,,2013-09-26 22:34:00,
2013-09-26 14:39:00,54.4,43.7,14.77,SW,225,5.2,-999.0,67,0.00,,,-99.99,,2013-09-26 22:39:00,
2013-09-26 14:44:00,54.2,43.2,14.77,WSW,246,2.8,-999.0,66,0.00,,,-99.99,,2013-09-26 22:44:00,
2013-09-26 14:49:00,54.2,43.4,14.77,West,268,2.7,-999.0,66,0.00,,,-99.99,,2013-09-26 22:49:00,
2013-09-26 14:54:00,54.0,44.0,14.77,ENE,61,2.7,-999.0,68,0.00,,,-99.99,,2013-09-26 22:54:00,
2013-09-26 14:59:00,54.2,44.2,14.79,NW,313,3.2,-999.0,68,0.00,,,-99.99,,2013-09-26 22:59:00,
2013-09-26 15:04:00,54.3,44.0,14.77,WNW,287,1.5,-999.0,67,0.00,,,-99.99,,2013-09-26 23:04:00,
2013-09-26 15:09:00,54.6,44.4,14.77,WNW,301,0.9,-999.0,68,0.00,,,-99.99,,2013-09-26 23:09:00,
2013-09-26 15:14:00,54.6,44.7,14.77,SSW,199,3.4,-999.0,69,0.00,,,-99.99,,2013-09-26 23:14:00,
2013-09-26 15:19:00,54.7,44.7,14.77,SE,134,2.0,-999.0,68,0.00,,,-99.99,,2013-09-26 23:19:00,
2013-09-26 15:24:00,54.1,45.1,14.77,East,96,3.7,-999.0,71,0.00,,,-99.99,,2013-09-26 23:24:00,
2013-09-26 15:29:00,52.9,44.8,14.77,ESE,119,4.2,-999.0,73,0.00,,,-99.99,,2013-09-26 23:29:00,
2013-09-26 15:34:00,52.4,44.7,14.77,ESE,108,3.9,-999.0,74,0.00,,,-99.99,,2013-09-26 23:34:00,
2013-09-26 15:39:00,52.3,45.0,14.77,East,90,4.3,-999.0,76,0.00,,,-99.99,,2013-09-26 23:39:00,
2013-09-26 15:44:00,51.9,45.6,14.77,East,84,4.7,-999.0,78,0.00,,,-99.99,,2013-09-26 23:44:00,
2013-09-26 15:49:00,51.2,46.4,14.77,ENE,65,6.4,-999.0,83,0.00,,,-99.99,,2013-09-26 23:49:00,
2013-09-26 15:55:00,50.9,46.5,14.77,ENE,62,6.2,-999.0,84,0.00,,,-99.99,,2013-09-26 23:55:00,
2013-09-26 16:00:00,50.8,46.3,14.78,ENE,60,6.1,-999.0,84,0.00,,,-99.99,,2013-09-27 00:00:00,
2013-09-26 16:05:00,51.3,45.7,14.77,ENE,58,4.9,-999.0,81,0.00,,,-99.99,,2013-09-27 00:05:00,
2013-09-26 16:10:00,51.4,45.4,14.77,NE,53,7.1,-999.0,79,0.00,,,-99.99,,2013-09-27 00:10:00,
2013-09-26 16:16:00,51.5,45.4,14.77,ENE,67,7.2,-999.0,79,0.00,,,-99.99,,2013-09-27 00:16:00,
2013-09-26 16:21:00,51.1,45.1,14.77,ENE,67,8.8,-999.0,79,0.00,,,-99.99,,2013-09-27 00:21:00,
2013-09-26 16:26:00,50.7,45.0,14.77,ENE,65,8.2,-999.0,80,0.00,,,-99.99,,2013-09-27 00:26:00,
2013-09-26 16:31:00,50.5,45.4,14.77,ENE,57,7.2,-999.0,82,0.00,,,-99.99,,2013-09-27 00:31:00,
2013-09-26 16:36:00,50.9,45.2,14.77,NE,36,4.7,-999.0,80,0.00,,,-99.99,,2013-09-27 00:36:00,
2013-09-26 16:41:00,51.1,45.4,14.77,NE,47,8.4,-999.0,80,0.00,,,-99.99,,2013-09-27 00:41:00,
2013-09-26 16:46:00,51.1,45.3,14.77,ENE,57,9.8,-999.0,80,0.00,,,-99.99,,2013-09-27 00:46:00,
2013-09-26 16:51:00,51.1,45.5,14.77,NE,39,5.7,-999.0,81,0.00,,,-99.99,,2013-09-27 00:51:00,
2013-09-26 16:56:00,51.2,45.6,14.77,NE,55,9.9,-999.0,81,0.00,,,-99.99,,2013-09-27 00:56:00,
2013-09-26 17:01:00,51.0,45.7,14.78,NE,54,8.1,-999.0,81,0.00,,,-99.99,,2013-09-27 01:01:00,
2013-09-26 17:06:00,50.9,45.4,14.77,ENE,63,7.3,-999.0,81,0.00,,,-99.99,,2013-09-27 01:06:00,
2013-09-26 17:11:00,50.8,45.6,14.77,NE,53,6.1,-999.0,82,0.00,,,-99.99,,2013-09-27 01:11:00,
2013-09-26 17:16:00,50.7,45.8,14.77,East,80,3.3,-999.0,83,0.00,,,-99.99,,2013-09-27 01:16:00,
2013-09-26 17:21:00,50.3,46.2,14.77,East,95,3.9,-999.0,85,0.00,,,-99.99,,2013-09-27 01:21:00,
2013-09-26 17:26:00,50.1,46.1,14.78,ENE,68,5.1,-999.0,86,0.00,,,-99.99,,2013-09-27 01:26:00,
2013-09-26 17:31:00,50.2,46.0,14.77,ENE,61,5.4,-999.0,85,0.00,,,-99.99,,2013-09-27 01:31:00,
2013-09-26 17:36:00,49.9,45.9,14.77,ENE,77,5.5,-999.0,85,0.00,,,-99.99,,2013-09-27 01:36:00,
2013-09-26 17:41:00,49.7,45.8,14.77,ENE,74,7.3,-999.0,86,0.00,,,-99.99,,2013-09-27 01:41:00,
2013-09-26 17:46:00,49.6,45.6,14.77,ENE,73,6.5,-999.0,85,0.00,,,-99.99,,2013-09-27 01:46:00,
2013-09-26 17:51:00,49.7,46.1,14.77,East,81,2.8,-999.0,87,0.00,,,-99.99,,2013-09-27 01:51:00,
2013-09-26 17:56:00,49.5,46.0,14.77,ENE,67,4.9,-999.0,87,0.00,,,-99.99,,2013-09-27 01:56:00,
2013-09-26 18:01:00,49.5,46.1,14.77,North,9,4.3,-999.0,87,0.00,,,-99.99,,2013-09-27 02:01:00,
2013-09-26 18:06:00,49.6,45.9,14.77,ENE,57,4.2,-999.0,87,0.00,,,-99.99,,2013-09-27 02:06:00,
2013-09-26 18:11:00,49.6,45.5,14.77,North,7,1.4,-999.0,85,0.00,,,-99.99,,2013-09-27 02:11:00,
2013-09-26 18:16:00,50.0,45.4,14.77,South,169,2.2,-999.0,84,0.00,,,-99.99,,2013-09-27 02:16:00,
2013-09-26 18:21:00,50.2,44.3,14.77,SSW,209,4.0,-999.0,79,0.00,,,-99.99,,2013-09-27 02:21:00,
2013-09-26 18:26:00,50.6,44.5,14.77,SSW,194,1.8,-999.0,79,0.00,,,-99.99,,2013-09-27 02:26:00,
2013-09-26 18:31:00,50.3,43.7,14.77,WSW,253,8.9,-999.0,77,0.00,,,-99.99,,2013-09-27 02:31:00,
2013-09-26 18:36:00,50.1,43.5,14.77,West,266,6.9,-999.0,77,0.00,,,-99.99,,2013-09-27 02:36:00,
2013-09-26 18:41:00,49.9,42.6,14.77,SSW,210,12.1,-999.0,75,0.00,,,-99.99,,2013-09-27 02:41:00,
2013-09-26 18:46:00,49.2,42.7,14.77,SSW,199,8.3,-999.0,78,0.00,,,-99.99,,2013-09-27 02:46:00,
2013-09-26 18:51:00,48.5,42.6,14.77,SSW,204,16.0,-999.0,79,0.00,,,-99.99,,2013-09-27 02:51:00,
2013-09-26 18:56:00,47.8,42.6,14.77,SW,219,12.1,-999.0,82,0.00,,,-99.99,,2013-09-27 02:56:00,
2013-09-26 19:01:00,47.2,42.3,14.77,SW,215,15.3,-999.0,82,0.00,,,-99.99,,2013-09-27 03:01:00,
2013-09-26 19:06:00,46.8,42.2,14.77,SW,236,10.8,-999.0,83,0.00,,,-99.99,,2013-09-27 03:06:00,
2013-09-26 19:11:00,46.8,42.4,14.77,WSW,239,9.6,-999.0,84,0.00,,,-99.99,,2013-09-27 03:11:00,
2013-09-26 19:16:00,46.7,41.8,14.77,South,186,8.0,-999.0,82,0.00,,,-99.99,,2013-09-27 03:16:00,
2013-09-26 19:21:00,46.8,41.3,14.77,SW,227,11.9,-999.0,80,0.01,,,-99.99,,2013-09-27 03:21:00,
2013-09-26 19:26:00,47.0,41.2,14.77,WSW,245,7.3,-999.0,80,0.00,,,-99.99,,2013-09-27 03:26:00,
2013-09-26 19:31:00,46.9,41.0,14.77,SW,228,9.2,-999.0,79,0.00,,,-99.99,,2013-09-27 03:31:00,
2013-09-26 19:36:00,46.7,40.8,14.77,WNW,288,3.3,-999.0,79,0.00,,,-99.99,,2013-09-27 03:36:00,
2013-09-26 19:41:00,46.3,41.8,14.77,WNW,294,1.5,-999.0,84,0.00,,,-99.99,,2013-09-27 03:41:00,
2013-09-26 19:46:00,46.0,41.7,14.78,West,279,3.8,-999.0,84,0.00,,,-99.99,,2013-09-27 03:46:00,
2013-09-26 19:51:00,45.9,42.2,14.77,West,274,1.5,-999.0,86,0.00,,,-99.99,,2013-09-27 03:51:00,
2013-09-26 20:01:00,46.1,42.6,14.77,ENE,65,1.8,-999.0,87,0.00,,,-99.99,,2013-09-27 04:01:00,
2013-09-26 20:02:00,46.0,42.7,14.77,ENE,62,1.7,-999.0,88,0.00,,,-99.99,,2013-09-27 04:02:00,
2013-09-26 20:05:00,45.9,42.6,14.77,ENE,69,4.8,-999.0,88,0.00,,,-99.99,,2013-09-27 04:05:00,
2013-09-26 20:09:00,45.6,42.6,14.77,North,350,3.8,-999.0,88,0.00,,,-99.99,,2013-09-27 04:09:00,
2013-09-26 20:14:00,45.4,42.7,14.77,North,8,1.4,-999.0,90,0.00,,,-99.99,,2013-09-27 04:14:00,
2013-09-26 20:19:00,45.0,42.9,14.77,North,2,3.1,-999.0,92,0.00,,,-99.99,,2013-09-27 04:19:00,
2013-09-26 20:20:00,45.0,43.0,14.77,North,4,2.6,-999.0,92,0.00,,,-99.99,,2013-09-27 04:20:00,
2013-09-26 20:25:00,44.7,43.0,14.77,North,351,2.1,-999.0,93,0.00,,,-99.99,,2013-09-27 04:25:00,
2013-09-26 20:30:00,44.8,43.3,14.77,NE,50,1.2,-999.0,94,0.00,,,-99.99,,2013-09-27 04:30:00,
2013-09-26 20:35:00,45.0,41.9,14.77,SSE,154,6.6,-999.0,88,0.00,,,-99.99,,2013-09-27 04:35:00,
2013-09-26 20:40:00,45.3,42.1,14.77,SE,126,0.6,-999.0,88,0.00,,,-99.99,,2013-09-27 04:40:00,
2013-09-26 20:45:00,45.2,41.3,14.77,ESE,115,5.9,-999.0,86,0.00,,,-99.99,,2013-09-27 04:45:00,
2013-09-26 20:50:00,45.5,41.4,14.77,East,93,4.2,-999.0,85,0.00,,,-99.99,,2013-09-27 04:50:00,
2013-09-26 20:55:00,45.5,41.2,14.77,SE,134,6.2,-999.0,84,0.00,,,-99.99,,2013-09-27 04:55:00,
2013-09-26 21:05:00,45.3,41.7,14.77,ESE,106,2.9,-999.0,86,0.00,,,-99.99,,2013-09-27 05:05:00,
2013-09-26 21:11:00,45.4,41.8,14.77,East,93,4.9,-999.0,87,0.00,,,-99.99,,2013-09-27 05:11:00,
2013-09-26 21:16:00,45.4,41.4,14.77,East,91,6.4,-999.0,85,0.00,,,-99.99,,2013-09-27 05:16:00,
2013-09-26 21:21:00,45.3,41.6,14.77,East,99,5.3,-999.0,86,0.00,,,-99.99,,2013-09-27 05:21:00,
2013-09-26 21:26:00,45.4,41.9,14.77,ENE,63,5.9,-999.0,87,0.00,,,-99.99,,2013-09-27 05:26:00,
2013-09-26 21:31:00,45.6,42.7,14.77,ENE,66,7.9,-999.0,89,0.00,,,-99.99,,2013-09-27 05:31:00,
2013-09-26 21:36:00,45.3,42.8,14.77,NE,46,7.0,-999.0,90,0.00,,,-99.99,,2013-09-27 05:36:00,
2013-09-26 21:41:00,44.8,42.8,14.77,NE,44,3.0,-999.0,92,0.00,,,-99.99,,2013-09-27 05:41:00,
2013-09-26 21:46:00,44.9,43.3,14.77,ENE,62,12.7,-999.0,93,0.00,,,-99.99,,2013-09-27 05:46:00,
2013-09-26 21:51:00,45.5,43.4,14.77,ENE,75,5.3,-999.0,92,0.00,,,-99.99,,2013-09-27 05:51:00,
2013-09-26 21:56:00,45.9,43.0,14.77,ENE,72,17.4,-999.0,89,0.00,,,-99.99,,2013-09-27 05:56:00,
2013-09-26 22:01:00,46.0,44.0,14.77,ENE,59,7.0,-999.0,92,0.00,,,-99.99,,2013-09-27 06:01:00,
2013-09-26 22:06:00,45.8,44.0,14.77,NE,53,11.2,-999.0,93,0.00,,,-99.99,,2013-09-27 06:06:00,
2013-09-26 22:11:00,45.6,44.2,14.77,East,79,11.3,-999.0,94,0.01,,,-99.99,,2013-09-27 06:11:00,
2013-09-26 22:16:00,45.6,44.7,14.77,East,89,5.7,-999.0,96,0.00,,,-99.99,,2013-09-27 06:16:00,
2013-09-26 22:21:00,45.5,44.5,14.77,ENE,62,10.9,-999.0,96,0.00,,,-99.99,,2013-09-27 06:21:00,
2013-09-26 22:26:00,45.5,44.6,14.77,ENE,66,13.4,-999.0,96,0.00,,,-99.99,,2013-09-27 06:26:00,
2013-09-26 22:31:00,45.1,44.2,14.77,NE,48,8.6,-999.0,96,0.00,,,-99.99,,2013-09-27 06:31:00,
2013-09-26 22:36:00,44.9,44.3,14.77,ENE,63,7.5,-999.0,97,0.00,,,-99.99,,2013-09-27 06:36:00,
2013-09-26 22:41:00,44.8,44.3,14.77,NE,49,4.4,-999.0,98,0.00,,,-99.99,,2013-09-27 06:41:00,
2013-09-26 22:46:00,44.8,44.3,14.77,East,89,6.0,-999.0,98,0.00,,,-99.99,,2013-09-27 06:46:00,
2013-09-26 22:51:00,44.8,44.5,14.77,North,7,6.5,-999.0,98,0.00,,,-99.99,,2013-09-27 06:51:00,
2013-09-26 22:56:00,44.8,44.5,14.77,NE,46,7.8,-999.0,98,0.00,,,-99.99,,2013-09-27 06:56:00,
2013-09-26 23:01:00,44.9,44.6,14.77,NE,52,3.5,-999.0,98,0.00,,,-99.99,,2013-09-27 07:01:00,
2013-09-26 23:06:00,44.9,44.6,14.77,NE,40,8.8,-999.0,98,0.00,,,-99.99,,2013-09-27 07:06:00,
2013-09-26 23:11:00,44.9,44.6,14.77,NNW,341,4.0,-999.0,98,0.00,,,-99.99,,2013-09-27 07:11:00,
2013-09-26 23:16:00,45.0,44.7,14.77,North,11,5.4,-999.0,98,0.00,,,-99.99,,2013-09-27 07:16:00,
2013-09-26 23:21:00,45.1,44.9,14.77,NE,50,6.8,-999.0,98,0.00,,,-99.99,,2013-09-27 07:21:00,
2013-09-26 23:26:00,45.2,44.9,14.77,North,10,3.5,-999.0,99,0.00,,,-99.99,,2013-09-27 07:26:00,
2013-09-26 23:31:00,45.2,45.0,14.77,North,5,2.6,-999.0,99,0.00,,,-99.99,,2013-09-27 07:31:00,
2013-09-26 23:36:00,45.2,45.1,14.77,East,94,2.3,-999.0,99,0.00,,,-99.99,,2013-09-27 07:36:00,
2013-09-26 23:41:00,45.4,45.2,14.77,NNE,28,2.9,-999.0,99,0.00,,,-99.99,,2013-09-27 07:41:00,
2013-09-26 23:46:00,45.6,45.4,14.77,ENE,61,5.8,-999.0,99,0.00,,,-99.99,,2013-09-27 07:46:00,
2013-09-26 23:51:00,45.7,45.4,14.77,ENE,62,3.9,-999.0,98,0.00,,,-99.99,,2013-09-27 07:51:00,
2013-09-26 23:56:00,45.7,45.4,14.77,NE,48,3.2,-999.0,98,0.00,,,-99.99,,2013-09-27 07:56:00,
2013-09-26 23:57:00,45.6,45.3,14.77,NNE,22,3.0,-999.0,98,0.00,,,-99.99,,2013-09-27 07:57:00,